Time;durP1;ratioP1;P1;durP2;ratioP2;P2;SDS_P1;SDS_P2;PMS_P1;PMS_P2;Temp;Humidity;BMP_temperature;BMP_pressure;BME280_temperature;BME280_humidity;BME280_pressure;Samples;Min_cycle;Max_cycle;Signal;HPM_P1;HPM_P2
2022/06/12 00:00:54;;;;;;;;;;;;;;;22.25;73.61;100593.72;4885582;29;20305;-79
2022/06/12 00:03:20;;;;;;;;;;;;;;;22.28;73.35;100603.47;4898001;29;20297;-81
2022/06/12 00:05:47;;;;;;;;;;;;;;;22.24;73.56;100602.56;4898300;29;20381;-81
2022/06/12 00:08:12;;;;;;;;;;;;;;;22.27;73.39;100599.06;4890825;29;19923;-81
2022/06/12 00:10:38;;;;;;;;;;;;;;;22.26;73.42;100595.47;4899358;29;19926;-80
2022/06/12 00:13:04;;;;;;;;;;;;;;;22.23;73.46;100597.25;4908679;29;19915;-81
2022/06/12 00:15:30;;;;;;;;;;;;;;;22.23;73.46;100595.47;4899298;29;20295;-81
2022/06/12 00:17:56;;;;;;;;;;;;;;;22.26;73.34;100599.91;4899045;29;19947;-80
2022/06/12 00:20:24;;;;;;;;;;;;;;;22.23;73.52;100597.25;4909304;29;19915;-81
2022/06/12 00:22:50;;;;;;;;;;;;;;;22.24;73.39;100615.84;4895697;29;20370;-81
2022/06/12 00:25:17;;;;;;;;;;;;;;;22.24;73.43;100607.00;4894715;29;19916;-81
2022/06/12 00:27:42;;;;;;;;;;;;;;;22.23;73.43;100614.09;4895043;29;19919;-80
2022/06/12 00:30:09;;;;;;;;;;;;;;;22.23;73.16;100611.44;4900873;29;20017;-81
2022/06/12 00:32:35;;;;;;;;;;;;;;;22.26;73.29;100606.13;4899086;29;20037;-81
2022/06/12 00:35:01;;;;;;;;;;;;;;;22.20;73.37;100605.19;4894790;29;20405;-81
2022/06/12 00:37:27;;;;;;;;;;;;;;;22.21;73.40;100604.31;4907898;29;20341;-81
2022/06/12 00:39:53;;;;;;;;;;;;;;;22.20;73.41;100597.19;4899260;29;19971;-81
2022/06/12 00:42:29;;;;;;;;;;;;;;;22.15;73.55;100587.44;4894548;29;19986;-80
2022/06/12 00:44:55;;;;;;;;;;;;;;;22.18;73.42;100591.88;4907149;29;20057;-80
2022/06/12 00:47:21;;;;;;;;;;;;;;;22.21;73.40;100599.00;4901225;29;19915;-80
2022/06/12 00:49:48;;;;;;;;;;;;;;;22.16;73.44;100591.88;4894853;29;20238;-80
2022/06/12 00:52:20;;;;;;;;;;;;;;;22.15;73.50;100590.09;4903047;29;19915;-80
2022/06/12 00:54:50;;;;;;;;;;;;;;;22.11;73.67;100584.75;4898873;29;20022;-80
2022/06/12 00:57:16;;;;;;;;;;;;;;;22.14;73.48;100583.00;4896266;29;19915;-80
2022/06/12 00:59:41;;;;;;;;;;;;;;;22.09;73.74;100592.72;4899383;29;19932;-80
2022/06/12 01:02:08;;;;;;;;;;;;;;;22.14;73.52;100584.78;4895560;29;19911;-80
2022/06/12 01:07:18;;;;;;;;;;;;;;;22.10;73.59;100583.00;4903068;29;19922;-80
2022/06/12 01:09:45;;;;;;;;;;;;;;;22.06;73.76;100576.78;4903331;29;20018;-80
2022/06/12 01:12:13;;;;;;;;;;;;;;;22.07;73.79;100572.31;4892785;29;19915;-80
2022/06/12 01:14:41;;;;;;;;;;;;;;;22.05;73.90;100588.28;4872167;29;19925;-80
2022/06/12 01:17:07;;;;;;;;;;;;;;;22.08;73.59;100582.97;4885844;29;19915;-80
2022/06/12 01:19:37;;;;;;;;;;;;;;;22.10;73.57;100573.25;4908380;29;20523;-80
2022/06/12 01:22:21;;;;;;;;;;;;;;;22.13;73.46;100569.69;4891601;29;20007;-80
2022/06/12 01:25:05;;;;;;;;;;;;;;;22.14;73.34;100579.47;4901326;29;20499;-80
2022/06/12 01:27:43;;;;;;;;;;;;;;;22.10;73.51;100578.56;4893418;29;19919;-80
2022/06/12 01:30:16;;;;;;;;;;;;;;;22.09;73.48;100573.22;4888624;29;19919;-80
2022/06/12 01:32:44;;;;;;;;;;;;;;;22.08;73.58;100572.34;4904798;29;20386;-79
2022/06/12 01:35:13;;;;;;;;;;;;;;;22.11;73.53;100572.34;4880219;29;19916;-80
2022/06/12 01:37:57;;;;;;;;;;;;;;;22.11;73.42;100568.81;4883171;29;20282;-80
2022/06/12 01:40:30;;;;;;;;;;;;;;;22.08;73.43;100569.69;4892174;29;19927;-80
2022/06/12 01:43:14;;;;;;;;;;;;;;;22.05;73.68;100576.75;4862809;29;19915;-80
2022/06/12 01:45:43;;;;;;;;;;;;;;;22.04;73.53;100575.88;4886416;29;19940;-80
2022/06/12 01:48:11;;;;;;;;;;;;;;;22.04;73.73;100569.66;4881505;29;19923;-79
2022/06/12 01:50:40;;;;;;;;;;;;;;;22.03;73.64;100575.84;4863097;29;19919;-81
2022/06/12 01:53:17;;;;;;;;;;;;;;;22.01;73.61;100570.53;4879894;29;20383;-80
2022/06/12 01:55:48;;;;;;;;;;;;;;;22.00;73.83;100592.69;4879554;29;19911;-80
2022/06/12 01:58:13;;;;;;;;;;;;;;;22.02;73.60;100574.97;4863187;29;19911;-81
2022/06/12 02:00:40;;;;;;;;;;;;;;;22.07;73.48;100582.97;4879629;29;20401;-81
2022/06/12 02:03:11;;;;;;;;;;;;;;;22.00;73.66;100579.41;4880034;29;19963;-81
2022/06/12 02:05:45;;;;;;;;;;;;;;;22.02;73.62;100579.41;4854004;29;19971;-80
2022/06/12 02:08:15;;;;;;;;;;;;;;;21.99;73.69;100582.03;4871234;29;20393;-80
2022/06/12 02:10:41;;;;;;;;;;;;;;;21.94;73.94;100580.25;4872864;29;20429;-80
2022/06/12 02:13:14;;;;;;;;;;;;;;;21.99;73.76;100576.72;4868165;29;20537;-80
2022/06/12 02:15:45;;;;;;;;;;;;;;;22.01;73.66;100572.31;4862461;29;19944;-80
2022/06/12 02:18:12;;;;;;;;;;;;;;;21.95;73.90;100581.16;4868614;29;19919;-81
2022/06/12 02:20:40;;;;;;;;;;;;;;;21.95;73.83;100574.06;4866574;29;20282;-80
2022/06/12 02:23:07;;;;;;;;;;;;;;;21.94;73.83;100572.28;4884755;29;19916;-80
2022/06/12 02:25:34;;;;;;;;;;;;;;;22.00;73.58;100578.53;4873573;29;19915;-81
2022/06/12 02:28:03;;;;;;;;;;;;;;;21.98;73.77;100582.94;4880359;29;20015;-80
2022/06/12 02:30:33;;;;;;;;;;;;;;;21.96;73.83;100582.94;4865437;29;20347;-80
2022/06/12 02:33:01;;;;;;;;;;;;;;;22.00;73.62;100589.16;4878166;29;19927;-80
2022/06/12 02:36:02;;;;;;;;;;;;;;;21.95;73.77;100581.16;4893653;29;20362;-80
2022/06/12 02:38:30;;;;;;;;;;;;;;;21.94;73.84;100595.31;4859119;29;19915;-80
2022/06/12 02:40:56;;;;;;;;;;;;;;;21.98;73.65;100597.13;4890728;29;19915;-80
2022/06/12 02:43:23;;;;;;;;;;;;;;;21.92;73.93;100600.63;4880709;29;20382;-81
2022/06/12 02:45:59;;;;;;;;;;;;;;;21.96;73.63;100599.75;4896025;29;20192;-79
2022/06/12 02:48:25;;;;;;;;;;;;;;;21.99;73.51;100592.69;4898626;29;20021;-81
2022/06/12 02:50:54;;;;;;;;;;;;;;;21.95;73.65;100600.66;4898512;29;19998;-81
2022/06/12 02:53:26;;;;;;;;;;;;;;;21.97;73.64;100595.34;4895425;29;20374;-81
2022/06/12 02:55:59;;;;;;;;;;;;;;;22.00;73.46;100595.34;4894937;29;19922;-81
2022/06/12 02:58:33;;;;;;;;;;;;;;;21.95;73.63;100598.00;4896102;29;19915;-79
2022/06/12 03:01:00;;;;;;;;;;;;;;;21.94;73.58;100600.63;4892705;29;19920;-80
2022/06/12 03:03:47;;;;;;;;;;;;;;;21.95;73.53;100598.00;4894918;29;20362;-81
2022/06/12 03:06:14;;;;;;;;;;;;;;;21.94;73.49;100598.84;4888248;29;19915;-81
2022/06/12 03:08:45;;;;;;;;;;;;;;;21.91;73.75;100603.28;4879165;29;19920;-81
2022/06/12 03:11:10;;;;;;;;;;;;;;;21.93;73.67;100602.41;4880785;29;19919;-80
2022/06/12 03:13:36;;;;;;;;;;;;;;;21.93;73.73;100590.91;4895887;29;19931;-81
2022/06/12 03:16:23;;;;;;;;;;;;;;;21.93;73.62;100594.44;4889364;29;19931;-80
2022/06/12 03:18:50;;;;;;;;;;;;;;;21.90;73.71;100602.38;4891079;29;20400;-80
2022/06/12 03:21:31;;;;;;;;;;;;;;;21.91;73.68;100588.22;4894511;29;19993;-81
2022/06/12 03:24:05;;;;;;;;;;;;;;;21.92;73.49;100589.09;4894997;29;19922;-81
2022/06/12 03:26:30;;;;;;;;;;;;;;;21.93;73.48;100591.78;4895275;29;20002;-80
2022/06/12 03:28:58;;;;;;;;;;;;;;;21.92;73.68;100594.44;4899054;29;20090;-81
2022/06/12 03:31:30;;;;;;;;;;;;;;;21.89;73.60;100594.44;4896739;29;19921;-81
2022/06/12 03:33:57;;;;;;;;;;;;;;;21.90;73.72;100605.03;4890423;29;19928;-80
2022/06/12 03:36:25;;;;;;;;;;;;;;;21.93;73.57;100596.22;4895698;29;20386;-80
2022/06/12 03:38:53;;;;;;;;;;;;;;;21.87;73.83;100602.38;4890563;29;19912;-80
2022/06/12 03:41:27;;;;;;;;;;;;;;;21.91;73.57;100600.63;4898917;29;20023;-80
2022/06/12 03:43:53;;;;;;;;;;;;;;;21.89;73.73;100600.63;4897871;29;20006;-80
2022/06/12 03:46:25;;;;;;;;;;;;;;;21.87;73.80;100597.06;4899501;29;20469;-80
2022/06/12 03:48:56;;;;;;;;;;;;;;;21.86;73.80;100603.25;4894852;29;20508;-81
2022/06/12 03:51:21;;;;;;;;;;;;;;;21.91;73.56;100601.53;4896424;29;20010;-80
2022/06/12 03:53:53;;;;;;;;;;;;;;;21.89;73.59;100594.44;4896442;29;20345;-80
2022/06/12 03:59:24;;;;;;;;;;;;;;;21.85;73.64;100595.28;4895570;29;19937;-81
2022/06/12 04:01:49;;;;;;;;;;;;;;;21.90;73.64;100615.69;4895451;29;20321;-81
2022/06/12 04:04:15;;;;;;;;;;;;;;;21.87;73.67;100617.44;4890469;29;20425;-80
2022/06/12 04:06:40;;;;;;;;;;;;;;;21.87;73.75;100613.03;4890038;29;19918;-81
2022/06/12 04:09:09;;;;;;;;;;;;;;;21.88;73.59;100622.75;4880766;29;20006;-81
2022/06/12 04:11:37;;;;;;;;;;;;;;;21.85;73.94;100621.88;4885481;29;20035;-81
2022/06/12 04:14:03;;;;;;;;;;;;;;;21.91;73.45;100616.59;4897502;29;19915;-80
2022/06/12 04:16:54;;;;;;;;;;;;;;;21.87;73.62;100612.13;4900310;29;19921;-80
2022/06/12 04:19:21;;;;;;;;;;;;;;;21.83;73.86;100616.53;4898619;29;19966;-80
2022/06/12 04:22:02;;;;;;;;;;;;;;;21.88;73.54;100622.75;4898863;29;19912;-81
2022/06/12 04:24:30;;;;;;;;;;;;;;;21.86;73.59;100618.31;4899843;29;20010;-80
2022/06/12 04:27:06;;;;;;;;;;;;;;;21.88;73.44;100620.09;4897724;29;19911;-80
2022/06/12 04:29:33;;;;;;;;;;;;;;;21.84;73.80;100620.97;4897505;29;19916;-81
2022/06/12 04:32:00;;;;;;;;;;;;;;;21.88;73.50;100614.78;4886422;29;19919;-81
2022/06/12 04:34:27;;;;;;;;;;;;;;;21.85;73.60;100617.44;4873400;29;19920;-81
2022/06/12 04:36:54;;;;;;;;;;;;;;;21.86;73.54;100616.53;4892926;29;19919;-81
2022/06/12 04:39:22;;;;;;;;;;;;;;;21.88;73.35;100600.59;4873455;29;19920;-81
2022/06/12 04:41:48;;;;;;;;;;;;;;;21.86;73.54;100607.69;4884044;29;19923;-81
2022/06/12 04:44:14;;;;;;;;;;;;;;;21.85;73.50;100609.47;4882623;29;19912;-81
2022/06/12 04:46:41;;;;;;;;;;;;;;;21.86;73.56;100605.03;4878256;29;20381;-81
2022/06/12 04:49:06;;;;;;;;;;;;;;;21.82;73.59;100604.09;4899636;29;20410;-81
2022/06/12 04:51:32;;;;;;;;;;;;;;;21.83;73.59;100600.59;4895561;29;19912;-81
2022/06/12 04:53:58;;;;;;;;;;;;;;;21.85;73.53;100600.59;4886372;29;19971;-80
2022/06/12 04:56:24;;;;;;;;;;;;;;;21.84;73.59;100604.13;4896719;29;20408;-81
2022/06/12 04:58:49;;;;;;;;;;;;;;;21.84;73.43;100599.69;4899477;29;20227;-80
2022/06/12 05:01:15;;;;;;;;;;;;;;;21.83;73.49;100600.59;4899376;29;20452;-81
2022/06/12 05:03:43;;;;;;;;;;;;;;;21.79;73.73;100600.56;4882483;29;20021;-80
2022/06/12 05:06:10;;;;;;;;;;;;;;;21.88;73.25;100595.28;4884418;29;19910;-80
2022/06/12 05:08:36;;;;;;;;;;;;;;;21.84;73.46;100596.16;4882336;29;19920;-81
2022/06/12 05:11:01;;;;;;;;;;;;;;;21.81;73.59;100597.03;4871922;29;19912;-80
2022/06/12 05:13:27;;;;;;;;;;;;;;;21.79;73.70;100600.56;4882795;29;19923;-80
2022/06/12 05:15:52;;;;;;;;;;;;;;;21.82;73.70;100600.56;4882062;29;20433;-81
2022/06/12 05:18:18;;;;;;;;;;;;;;;21.83;73.60;100599.72;4877916;29;19974;-81
2022/06/12 05:20:45;;;;;;;;;;;;;;;21.80;73.64;100603.25;4882440;29;19912;-81
2022/06/12 05:23:10;;;;;;;;;;;;;;;21.78;73.72;100601.44;4882101;29;19919;-81
2022/06/12 05:25:35;;;;;;;;;;;;;;;21.79;73.79;100603.22;4898882;29;19911;-81
2022/06/12 05:28:03;;;;;;;;;;;;;;;21.78;73.80;100598.78;4881902;29;19915;-81
2022/06/12 05:30:29;;;;;;;;;;;;;;;21.84;73.48;100604.13;4881978;29;19918;-81
2022/06/12 05:32:55;;;;;;;;;;;;;;;21.82;73.52;100603.22;4878474;29;19979;-81
2022/06/12 05:35:21;;;;;;;;;;;;;;;21.76;73.77;100593.47;4896614;29;20457;-81
2022/06/12 05:37:47;;;;;;;;;;;;;;;21.79;73.86;100595.25;4896507;29;20010;-80
2022/06/12 05:40:15;;;;;;;;;;;;;;;21.78;73.72;100604.09;4896484;29;20050;-81
2022/06/12 05:42:40;;;;;;;;;;;;;;;21.77;73.82;100605.88;4897685;29;19911;-81
2022/06/12 05:45:07;;;;;;;;;;;;;;;21.79;73.64;100605.88;4898135;29;19911;-81
2022/06/12 05:47:33;;;;;;;;;;;;;;;21.82;73.61;100601.44;4893470;29;20274;-80
2022/06/12 05:49:58;;;;;;;;;;;;;;;21.77;73.84;100611.19;4901349;29;19915;-84
2022/06/12 05:52:24;;;;;;;;;;;;;;;21.73;73.96;100612.03;4885515;29;19918;-80
2022/06/12 05:54:49;;;;;;;;;;;;;;;21.71;74.14;100597.84;4898375;29;20377;-80
2022/06/12 05:57:14;;;;;;;;;;;;;;;21.70;74.07;100596.97;4900303;29;19922;-80
2022/06/12 05:59:40;;;;;;;;;;;;;;;21.68;74.18;100598.75;4898686;29;19947;-80
2022/06/12 06:02:06;;;;;;;;;;;;;;;21.76;73.75;100596.13;4903409;29;19915;-80
2022/06/12 06:04:32;;;;;;;;;;;;;;;21.71;73.76;100593.41;4901310;29;19974;-80
2022/06/12 06:06:58;;;;;;;;;;;;;;;21.64;74.37;100596.94;4888850;29;19919;-80
2022/06/12 06:09:24;;;;;;;;;;;;;;;21.62;74.36;100600.47;4897342;29;19915;-80
2022/06/12 06:11:49;;;;;;;;;;;;;;;21.62;74.60;100598.69;4892457;29;19965;-80
2022/06/12 06:14:15;;;;;;;;;;;;;;;21.68;74.12;100604.06;4897483;29;19970;-80
2022/06/12 06:16:43;;;;;;;;;;;;;;;21.69;74.08;100607.59;4902324;29;19919;-80
2022/06/12 06:19:08;;;;;;;;;;;;;;;21.75;73.79;100610.28;4897869;29;20067;-80
2022/06/12 06:21:34;;;;;;;;;;;;;;;21.72;73.83;100608.50;4896695;29;19994;-80
2022/06/12 06:23:59;;;;;;;;;;;;;;;21.66;74.11;100604.94;4897994;29;20002;-80
2022/06/12 06:26:25;;;;;;;;;;;;;;;21.69;73.96;100608.47;4897816;29;19918;-80
2022/06/12 06:28:51;;;;;;;;;;;;;;;21.72;73.89;100612.94;4893071;29;20659;-80
2022/06/12 06:31:17;;;;;;;;;;;;;;;21.65;74.03;100595.16;4901814;29;19923;-80
2022/06/12 06:33:42;;;;;;;;;;;;;;;21.65;74.08;100608.44;4887023;29;19930;-80
2022/06/12 06:36:08;;;;;;;;;;;;;;;21.71;73.72;100612.03;4897085;29;19917;-80
2022/06/12 06:38:34;;;;;;;;;;;;;;;21.62;74.16;100612.00;4887605;29;19934;-80
2022/06/12 06:40:59;;;;;;;;;;;;;;;21.70;73.88;100609.38;4883974;29;20437;-80
2022/06/12 06:43:25;;;;;;;;;;;;;;;21.62;74.24;100609.31;4892943;29;19918;-80
2022/06/12 06:48:34;;;;;;;;;;;;;;;21.71;73.76;100619.13;4881043;29;19921;-81
2022/06/12 06:51:02;;;;;;;;;;;;;;;21.67;73.78;100601.38;4875031;29;19912;-81
2022/06/12 06:53:28;;;;;;;;;;;;;;;21.61;74.25;100606.66;4883787;29;19926;-80
2022/06/12 06:55:53;;;;;;;;;;;;;;;21.53;74.44;100596.00;4883461;29;19915;-80
2022/06/12 06:58:20;;;;;;;;;;;;;;;21.58;74.33;100609.31;4894518;29;19962;-80
2022/06/12 07:00:46;;;;;;;;;;;;;;;21.59;74.25;100611.06;4896450;29;19994;-80
2022/06/12 07:03:12;;;;;;;;;;;;;;;21.62;74.16;100614.66;4900802;29;20001;-80
2022/06/12 07:05:38;;;;;;;;;;;;;;;21.61;74.09;100618.19;4886496;29;19915;-81
2022/06/12 07:08:04;;;;;;;;;;;;;;;21.54;74.12;100614.56;4880245;29;19956;-81
2022/06/12 07:10:31;;;;;;;;;;;;;;;21.54;74.20;100614.56;4890936;29;20520;-82
2022/06/12 07:12:56;;;;;;;;;;;;;;;21.51;74.63;100614.56;4879529;29;19916;-82
2022/06/12 07:15:23;;;;;;;;;;;;;;;21.59;74.32;100616.38;4878407;29;19983;-81
2022/06/12 07:17:48;;;;;;;;;;;;;;;21.67;73.90;100609.34;4879278;29;19915;-82
2022/06/12 07:20:16;;;;;;;;;;;;;;;21.61;73.96;100610.22;4878714;29;19911;-82
2022/06/12 07:22:41;;;;;;;;;;;;;;;21.61;74.25;100619.94;4884615;29;20299;-83
2022/06/12 07:25:07;;;;;;;;;;;;;;;21.48;74.47;100627.84;4888144;29;19923;-81
2022/06/12 07:27:33;;;;;;;;;;;;;;;21.59;74.21;100621.69;4876064;29;20425;-82
2022/06/12 07:29:58;;;;;;;;;;;;;;;21.51;74.38;100621.66;4896867;29;19958;-82
2022/06/12 07:32:24;;;;;;;;;;;;;;;21.58;74.12;100619.94;4877026;29;19920;-83
2022/06/12 07:34:50;;;;;;;;;;;;;;;21.61;74.05;100630.56;4857537;29;19911;-81
2022/06/12 07:37:15;;;;;;;;;;;;;;;21.46;74.71;100628.69;4858955;29;19912;-83
2022/06/12 07:39:41;;;;;;;;;;;;;;;21.50;74.56;100635.81;4860352;29;20027;-83
2022/06/12 07:42:07;;;;;;;;;;;;;;;21.56;74.40;100635.84;4858656;29;19971;-82
2022/06/12 07:44:33;;;;;;;;;;;;;;;21.49;74.66;100636.72;4860846;29;19969;-81
2022/06/12 07:46:58;;;;;;;;;;;;;;;21.49;74.68;100645.56;4863027;29;19915;-81
2022/06/12 07:49:24;;;;;;;;;;;;;;;21.49;74.68;100648.22;4860675;29;20351;-81
2022/06/12 07:51:50;;;;;;;;;;;;;;;21.51;74.66;100642.91;4863162;29;19923;-83
2022/06/12 07:54:17;;;;;;;;;;;;;;;21.52;74.55;100642.91;4859631;29;19912;-81
2022/06/12 07:56:42;;;;;;;;;;;;;;;21.56;74.40;100654.47;4868633;29;19924;-81
2022/06/12 07:59:08;;;;;;;;;;;;;;;21.53;74.52;100663.31;4858500;29;19919;-81
2022/06/12 08:01:34;;;;;;;;;;;;;;;21.54;74.65;100661.53;4862616;29;20011;-80
2022/06/12 08:04:00;;;;;;;;;;;;;;;21.51;74.88;100664.19;4859790;29;20659;-81
2022/06/12 08:06:25;;;;;;;;;;;;;;;21.49;74.94;100660.63;4856583;29;20479;-82
2022/06/12 08:08:51;;;;;;;;;;;;;;;21.46;74.95;100658.84;4860728;29;20015;-82
2022/06/12 08:11:17;;;;;;;;;;;;;;;21.46;75.01;100663.22;4844987;29;19916;-81
2022/06/12 08:13:42;;;;;;;;;;;;;;;21.53;74.57;100665.09;4860481;29;19923;-82
2022/06/12 08:16:08;;;;;;;;;;;;;;;21.57;74.42;100668.63;4860273;29;19971;-81
2022/06/12 08:18:34;;;;;;;;;;;;;;;21.52;74.68;100664.16;4844463;29;19916;-81
2022/06/12 08:21:07;;;;;;;;;;;;;;;21.52;74.69;100663.28;4849819;29;19924;-81
2022/06/12 08:23:41;;;;;;;;;;;;;;;21.57;74.40;100655.34;4858912;29;19920;-80
2022/06/12 08:26:06;;;;;;;;;;;;;;;21.58;74.38;100668.66;4858140;29;19916;-82
2022/06/12 08:28:34;;;;;;;;;;;;;;;21.52;74.64;100665.94;4849880;29;19923;-81
2022/06/12 08:31:01;;;;;;;;;;;;;;;21.53;74.45;100668.63;4875920;29;20014;-80
2022/06/12 08:33:26;;;;;;;;;;;;;;;21.55;74.41;100668.63;4891538;29;20341;-82
2022/06/12 08:35:52;;;;;;;;;;;;;;;21.54;74.39;100677.47;4889657;29;20425;-80
2022/06/12 08:38:18;;;;;;;;;;;;;;;21.51;74.57;100673.03;4893137;29;19915;-79
2022/06/12 08:40:47;;;;;;;;;;;;;;;21.55;74.44;100676.59;4885112;29;19971;-82
2022/06/12 08:43:12;;;;;;;;;;;;;;;21.54;74.58;100675.69;4895549;29;19915;-80
2022/06/12 08:45:42;;;;;;;;;;;;;;;21.50;74.74;100684.50;4877500;29;19922;-81
2022/06/12 08:48:15;;;;;;;;;;;;;;;21.46;74.88;100677.44;4891685;29;20278;-81
2022/06/12 08:50:53;;;;;;;;;;;;;;;21.57;74.32;100666.88;4877970;29;20014;-81
2022/06/12 08:53:30;;;;;;;;;;;;;;;21.53;74.60;100676.59;4895234;29;19912;-80
2022/06/12 08:56:02;;;;;;;;;;;;;;;21.48;74.80;100675.69;4884745;29;19911;-81
2022/06/12 08:58:31;;;;;;;;;;;;;;;21.55;74.55;100664.22;4898293;29;20386;-81
2022/06/12 09:01:00;;;;;;;;;;;;;;;21.60;74.28;100672.19;4888167;29;19912;-81
2022/06/12 09:03:27;;;;;;;;;;;;;;;21.63;74.29;100679.31;4880190;29;19911;-82
2022/06/12 09:05:59;;;;;;;;;;;;;;;21.58;74.25;100671.31;4897607;29;19918;-82
2022/06/12 09:08:30;;;;;;;;;;;;;;;21.57;74.29;100658.00;4897248;29;19921;-79
2022/06/12 09:10:59;;;;;;;;;;;;;;;21.54;74.55;100665.06;4896337;29;20309;-80
2022/06/12 09:13:27;;;;;;;;;;;;;;;21.53;74.57;100663.31;4898245;29;19967;-81
2022/06/12 09:16:13;;;;;;;;;;;;;;;21.50;74.66;100665.03;4899123;29;20002;-81
2022/06/12 09:18:48;;;;;;;;;;;;;;;21.61;74.35;100673.09;4889917;29;19938;-81
2022/06/12 09:21:16;;;;;;;;;;;;;;;21.61;74.17;100673.09;4897731;29;19916;-82
2022/06/12 09:23:45;;;;;;;;;;;;;;;21.58;74.37;100670.41;4891621;29;19911;-81
2022/06/12 09:26:21;;;;;;;;;;;;;;;21.50;74.78;100675.66;4889215;29;19930;-83
2022/06/12 09:28:52;;;;;;;;;;;;;;;21.53;74.69;100673.06;4898850;29;19915;-81
2022/06/12 09:31:32;;;;;;;;;;;;;;;21.46;75.13;100671.19;4868272;29;20018;-80
2022/06/12 09:34:09;;;;;;;;;;;;;;;21.55;74.69;100677.50;4879714;29;19975;-83
2022/06/12 09:36:45;;;;;;;;;;;;;;;21.49;75.06;100677.44;4880844;29;19912;-82
2022/06/12 09:39:22;;;;;;;;;;;;;;;21.52;74.83;100671.25;4880431;29;19916;-81
2022/06/12 09:42:09;;;;;;;;;;;;;;;21.61;74.40;100674.00;4879415;29;19916;-81
2022/06/12 09:44:46;;;;;;;;;;;;;;;21.62;74.44;100682.84;4887545;29;19911;-81
2022/06/12 09:47:12;;;;;;;;;;;;;;;21.62;74.25;100677.53;4888216;29;19982;-82
2022/06/12 09:49:58;;;;;;;;;;;;;;;21.61;74.28;100679.31;4889150;29;20015;-81
2022/06/12 09:52:23;;;;;;;;;;;;;;;21.60;74.34;100697.91;4894694;29;19916;-86
2022/06/12 09:54:49;;;;;;;;;;;;;;;21.53;74.58;100692.53;4885077;29;19918;-81
2022/06/12 09:57:17;;;;;;;;;;;;;;;21.53;74.61;100687.22;4898308;29;20313;-81
2022/06/12 10:00:03;;;;;;;;;;;;;;;21.58;74.29;100689.91;4892787;29;19912;-82
2022/06/12 10:02:47;;;;;;;;;;;;;;;21.55;74.51;100690.78;4885344;29;19919;-82
2022/06/12 10:05:20;;;;;;;;;;;;;;;21.64;74.30;100695.28;4907649;29;19951;-81
2022/06/12 10:08:04;;;;;;;;;;;;;;;21.68;74.17;100690.88;4885121;29;19934;-81
2022/06/12 10:10:39;;;;;;;;;;;;;;;21.60;74.44;100685.50;4884073;29;19915;-82
2022/06/12 10:13:07;;;;;;;;;;;;;;;21.63;74.52;100689.94;4891334;29;19950;-81
2022/06/12 10:15:34;;;;;;;;;;;;;;;21.62;74.36;100680.19;4895910;29;19911;-82
2022/06/12 10:18:08;;;;;;;;;;;;;;;21.60;74.60;100685.50;4897842;29;20050;-82
2022/06/12 10:20:34;;;;;;;;;;;;;;;21.59;74.88;100688.13;4897006;29;19911;-81
2022/06/12 10:23:00;;;;;;;;;;;;;;;21.62;74.64;100683.75;4890346;29;19915;-81
2022/06/12 10:25:27;;;;;;;;;;;;;;;21.62;74.68;100685.50;4898053;29;20374;-81
2022/06/12 10:27:53;;;;;;;;;;;;;;;21.60;74.63;100677.50;4872920;29;19911;-81
2022/06/12 10:30:23;;;;;;;;;;;;;;;21.62;74.47;100674.88;4896061;29;20412;-81
2022/06/12 10:32:50;;;;;;;;;;;;;;;21.63;74.69;100669.59;4887020;29;19926;-81
2022/06/12 10:35:17;;;;;;;;;;;;;;;21.57;74.82;100673.94;4880886;29;19912;-81
2022/06/12 10:37:42;;;;;;;;;;;;;;;21.51;75.00;100672.16;4897684;29;19918;-81
2022/06/12 10:40:21;;;;;;;;;;;;;;;21.54;74.99;100669.50;4892988;29;19915;-81
2022/06/12 10:42:57;;;;;;;;;;;;;;;21.57;74.99;100664.22;4889215;29;20006;-82
2022/06/12 10:45:27;;;;;;;;;;;;;;;21.63;74.55;100658.97;4892720;29;20462;-81
2022/06/12 10:47:54;;;;;;;;;;;;;;;21.54;74.90;100656.22;4893856;29;19931;-80
2022/06/12 10:50:31;;;;;;;;;;;;;;;21.57;75.08;100652.69;4895419;29;19990;-80
2022/06/12 10:52:56;;;;;;;;;;;;;;;21.66;74.54;100655.44;4892129;29;19943;-80
2022/06/12 10:55:29;;;;;;;;;;;;;;;21.63;74.79;100658.97;4896586;29;19915;-79
2022/06/12 10:58:13;;;;;;;;;;;;;;;21.64;74.95;100646.56;4895573;29;19915;-82
2022/06/12 11:00:40;;;;;;;;;;;;;;;21.64;74.82;100649.22;4894229;29;19974;-83
2022/06/12 11:03:06;;;;;;;;;;;;;;;21.56;75.25;100651.81;4894195;29;19919;-81
2022/06/12 11:05:32;;;;;;;;;;;;;;;21.58;75.34;100649.16;4902195;29;19975;-80
2022/06/12 11:08:16;;;;;;;;;;;;;;;21.60;75.45;100639.44;4891683;29;19963;-80
2022/06/12 11:10:45;;;;;;;;;;;;;;;21.70;74.88;100630.66;4893375;29;20616;-80
2022/06/12 11:13:27;;;;;;;;;;;;;;;21.73;74.92;100623.56;4897671;29;20360;-80
2022/06/12 11:15:59;;;;;;;;;;;;;;;21.82;74.62;100605.88;4880613;29;19915;-80
2022/06/12 11:18:47;;;;;;;;;;;;;;;21.82;74.65;100616.53;4891295;29;19930;-78
2022/06/12 11:21:29;;;;;;;;;;;;;;;21.79;74.71;100601.44;4892868;29;20483;-77
2022/06/12 11:24:02;;;;;;;;;;;;;;;21.79;74.82;100590.81;4885961;29;19922;-79
2022/06/12 11:27:00;;;;;;;;;;;;;;;21.69;75.05;100584.56;4897816;29;19923;-78
2022/06/12 11:29:44;;;;;;;;;;;;;;;21.74;75.12;100589.91;4878892;29;20396;-79
2022/06/12 11:32:28;;;;;;;;;;;;;;;21.72;75.08;100594.34;4889300;29;19924;-78
2022/06/12 11:34:57;;;;;;;;;;;;;;;21.85;74.88;100601.50;4890013;29;19916;-78
2022/06/12 11:37:25;;;;;;;;;;;;;;;21.81;75.17;100594.38;4892547;29;19912;-79
2022/06/12 11:39:57;;;;;;;;;;;;;;;21.84;75.25;100602.34;4881228;29;20015;-78
2022/06/12 11:42:26;;;;;;;;;;;;;;;21.67;76.43;100594.28;4894370;29;20084;-79
2022/06/12 11:44:54;;;;;;;;;;;;;;;21.65;77.67;100593.41;4894036;29;19915;-79
2022/06/12 11:47:22;;;;;;;;;;;;;;;21.61;78.53;100588.97;4896323;29;19926;-78
2022/06/12 11:49:47;;;;;;;;;;;;;;;21.60;79.38;100592.47;4871807;29;20574;-78
2022/06/12 11:52:31;;;;;;;;;;;;;;;21.60;79.95;100592.47;4887467;29;19915;-78
2022/06/12 11:55:15;;;;;;;;;;;;;;;21.57;80.19;100592.47;4890763;29;19915;-78
2022/06/12 11:57:54;;;;;;;;;;;;;;;21.61;79.51;100590.72;4869707;29;19919;-80
2022/06/12 12:00:23;;;;;;;;;;;;;;;21.69;78.65;100595.19;4882697;29;19916;-79
2022/06/12 12:03:14;;;;;;;;;;;;;;;21.78;77.68;100585.47;4880251;29;20017;-78
2022/06/12 12:06:03;;;;;;;;;;;;;;;21.83;77.20;100592.63;4836478;29;19959;-79
2022/06/12 12:08:44;;;;;;;;;;;;;;;21.84;76.98;100581.09;4863670;29;20006;-79
2022/06/12 12:11:15;;;;;;;;;;;;;;;21.88;76.73;100582.88;4891188;29;20440;-79
2022/06/12 12:13:42;;;;;;;;;;;;;;;21.92;76.34;100573.16;4879318;29;19950;-79
2022/06/12 12:16:12;;;;;;;;;;;;;;;21.86;76.54;100578.44;4894918;29;19911;-79
2022/06/12 12:18:38;;;;;;;;;;;;;;;21.77;76.81;100570.44;4876167;29;20006;-80
2022/06/12 12:21:06;;;;;;;;;;;;;;;21.69;76.99;100570.38;4879115;29;20338;-79
2022/06/12 12:23:33;;;;;;;;;;;;;;;21.61;77.13;100565.03;4894774;29;19912;-79
2022/06/12 12:26:07;;;;;;;;;;;;;;;21.64;77.04;100566.81;4897407;29;19923;-79
2022/06/12 12:28:46;;;;;;;;;;;;;;;21.72;76.75;100557.13;4894128;29;20401;-79
2022/06/12 12:31:15;;;;;;;;;;;;;;;21.84;76.45;100559.81;4885156;29;19927;-79
2022/06/12 12:33:41;;;;;;;;;;;;;;;21.77;76.46;100552.72;4880789;29;19998;-79
2022/06/12 12:41:46;;;;;;;;;;;;;;;21.84;76.25;100548.31;4899168;29;19918;-80
2022/06/12 12:44:13;;;;;;;;;;;;;;;21.90;75.82;100545.66;4884352;29;20479;-79
2022/06/12 12:46:41;;;;;;;;;;;;;;;21.82;76.04;100545.63;4887398;29;19963;-79
2022/06/12 12:49:07;;;;;;;;;;;;;;;21.78;76.40;100542.97;4871372;29;19915;-79
2022/06/12 12:51:33;;;;;;;;;;;;;;;21.83;76.09;100539.44;4899441;29;20286;-79
2022/06/12 12:54:09;;;;;;;;;;;;;;;21.84;76.06;100543.88;4895276;29;20294;-79
2022/06/12 12:56:36;;;;;;;;;;;;;;;21.81;76.19;100538.56;4900370;29;19915;-80
2022/06/12 12:59:03;;;;;;;;;;;;;;;21.87;75.83;100541.25;4882954;29;20099;-79
2022/06/12 13:01:49;;;;;;;;;;;;;;;21.89;75.71;100533.28;4907581;29;20407;-81